sensor_id;sensor_type;location;lat;lon;timestamp;P1;durP1;ratioP1;P2;durP2;ratioP2
57985;SDS011;43788;42.670;23.330;2023-05-01T00:00:42;0.85;;;0.38;;
57985;SDS011;43788;42.670;23.330;2023-05-01T00:03:07;0.30;;;0.30;;
57985;SDS011;43788;42.670;23.330;2023-05-01T00:05:33;1.55;;;0.32;;
57985;SDS011;43788;42.670;23.330;2023-05-01T00:07:58;0.35;;;0.32;;
57985;SDS011;43788;42.670;23.330;2023-05-01T00:10:24;0.30;;;0.30;;
57985;SDS011;43788;42.670;23.330;2023-05-01T00:12:49;0.30;;;0.30;;
57985;SDS011;43788;42.670;23.330;2023-05-01T00:15:15;0.20;;;0.20;;
57985;SDS011;43788;42.670;23.330;2023-05-01T00:17:41;0.20;;;0.20;;
57985;SDS011;43788;42.670;23.330;2023-05-01T00:20:06;0.25;;;0.20;;
57985;SDS011;43788;42.670;23.330;2023-05-01T00:22:33;0.40;;;0.40;;
57985;SDS011;43788;42.670;23.330;2023-05-01T00:24:59;0.50;;;0.40;;
57985;SDS011;43788;42.670;23.330;2023-05-01T00:27:25;0.35;;;0.35;;
57985;SDS011;43788;42.670;23.330;2023-05-01T00:29:51;0.50;;;0.50;;
57985;SDS011;43788;42.670;23.330;2023-05-01T00:32:16;0.45;;;0.45;;
57985;SDS011;43788;42.670;23.330;2023-05-01T00:34:42;0.30;;;0.30;;
57985;SDS011;43788;42.670;23.330;2023-05-01T00:37:10;0.50;;;0.50;;
57985;SDS011;43788;42.670;23.330;2023-05-01T00:39:35;0.30;;;0.30;;
57985;SDS011;43788;42.670;23.330;2023-05-01T00:42:00;0.40;;;0.40;;
57985;SDS011;43788;42.670;23.330;2023-05-01T00:44:26;0.30;;;0.30;;
57985;SDS011;43788;42.670;23.330;2023-05-01T00:46:51;0.40;;;0.40;;
57985;SDS011;43788;42.670;23.330;2023-05-01T00:49:18;0.30;;;0.30;;
57985;SDS011;43788;42.670;23.330;2023-05-01T00:51:43;0.95;;;0.50;;
57985;SDS011;43788;42.670;23.330;2023-05-01T00:54:12;0.43;;;0.38;;
57985;SDS011;43788;42.670;23.330;2023-05-01T00:56:38;0.32;;;0.32;;
57985;SDS011;43788;42.670;23.330;2023-05-01T00:59:03;0.50;;;0.50;;
57985;SDS011;43788;42.670;23.330;2023-05-01T01:01:29;0.60;;;0.38;;
57985;SDS011;43788;42.670;23.330;2023-05-01T01:03:55;0.30;;;0.30;;
57985;SDS011;43788;42.670;23.330;2023-05-01T01:06:23;2.67;;;0.50;;
57985;SDS011;43788;42.670;23.330;2023-05-01T01:12:06;0.47;;;0.47;;
57985;SDS011;43788;42.670;23.330;2023-05-01T01:14:47;0.50;;;0.50;;
57985;SDS011;43788;42.670;23.330;2023-05-01T01:23:03;0.43;;;0.43;;
57985;SDS011;43788;42.670;23.330;2023-05-01T01:26:02;0.60;;;0.60;;
57985;SDS011;43788;42.670;23.330;2023-05-01T01:31:45;0.40;;;0.40;;
57985;SDS011;43788;42.670;23.330;2023-05-01T01:34:24;0.77;;;0.77;;
57985;SDS011;43788;42.670;23.330;2023-05-01T01:42:52;0.22;;;0.22;;
57985;SDS011;43788;42.670;23.330;2023-05-01T01:45:21;0.40;;;0.40;;
57985;SDS011;43788;42.670;23.330;2023-05-01T01:47:48;0.52;;;0.52;;
57985;SDS011;43788;42.670;23.330;2023-05-01T01:50:15;0.30;;;0.30;;
57985;SDS011;43788;42.670;23.330;2023-05-01T01:52:41;0.30;;;0.30;;
57985;SDS011;43788;42.670;23.330;2023-05-01T01:55:08;0.50;;;0.50;;
57985;SDS011;43788;42.670;23.330;2023-05-01T01:57:35;0.50;;;0.50;;
57985;SDS011;43788;42.670;23.330;2023-05-01T02:00:03;0.52;;;0.50;;
57985;SDS011;43788;42.670;23.330;2023-05-01T02:02:33;0.50;;;0.50;;
57985;SDS011;43788;42.670;23.330;2023-05-01T02:05:01;0.40;;;0.40;;
57985;SDS011;43788;42.670;23.330;2023-05-01T02:07:27;0.32;;;0.32;;
57985;SDS011;43788;42.670;23.330;2023-05-01T02:09:53;0.50;;;0.50;;
57985;SDS011;43788;42.670;23.330;2023-05-01T02:12:19;0.30;;;0.30;;
57985;SDS011;43788;42.670;23.330;2023-05-01T02:14:45;0.90;;;0.57;;
57985;SDS011;43788;42.670;23.330;2023-05-01T02:17:12;0.40;;;0.40;;
57985;SDS011;43788;42.670;23.330;2023-05-01T02:19:39;0.50;;;0.50;;
57985;SDS011;43788;42.670;23.330;2023-05-01T02:22:06;0.50;;;0.50;;
57985;SDS011;43788;42.670;23.330;2023-05-01T02:24:33;0.82;;;0.60;;
57985;SDS011;43788;42.670;23.330;2023-05-01T02:27:02;0.60;;;0.60;;
57985;SDS011;43788;42.670;23.330;2023-05-01T02:29:30;0.50;;;0.50;;
57985;SDS011;43788;42.670;23.330;2023-05-01T02:31:56;0.43;;;0.43;;
57985;SDS011;43788;42.670;23.330;2023-05-01T02:34:21;0.40;;;0.40;;
57985;SDS011;43788;42.670;23.330;2023-05-01T02:36:46;0.60;;;0.60;;
57985;SDS011;43788;42.670;23.330;2023-05-01T02:39:12;0.50;;;0.50;;
57985;SDS011;43788;42.670;23.330;2023-05-01T02:41:37;0.68;;;0.68;;
57985;SDS011;43788;42.670;23.330;2023-05-01T02:44:03;0.50;;;0.50;;
57985;SDS011;43788;42.670;23.330;2023-05-01T02:46:30;0.50;;;0.50;;
57985;SDS011;43788;42.670;23.330;2023-05-01T02:48:58;0.60;;;0.60;;
57985;SDS011;43788;42.670;23.330;2023-05-01T02:51:25;0.60;;;0.60;;
57985;SDS011;43788;42.670;23.330;2023-05-01T02:53:51;0.68;;;0.68;;
57985;SDS011;43788;42.670;23.330;2023-05-01T02:56:17;0.77;;;0.77;;
57985;SDS011;43788;42.670;23.330;2023-05-01T02:58:43;0.73;;;0.73;;
57985;SDS011;43788;42.670;23.330;2023-05-01T03:01:09;0.50;;;0.50;;
57985;SDS011;43788;42.670;23.330;2023-05-01T03:03:35;1.05;;;1.05;;
57985;SDS011;43788;42.670;23.330;2023-05-01T03:06:01;0.80;;;0.80;;
57985;SDS011;43788;42.670;23.330;2023-05-01T03:08:27;0.80;;;0.80;;
57985;SDS011;43788;42.670;23.330;2023-05-01T03:10:52;1.23;;;0.85;;
57985;SDS011;43788;42.670;23.330;2023-05-01T03:13:18;0.70;;;0.70;;
57985;SDS011;43788;42.670;23.330;2023-05-01T03:15:43;0.70;;;0.70;;
57985;SDS011;43788;42.670;23.330;2023-05-01T03:18:09;1.63;;;1.33;;
57985;SDS011;43788;42.670;23.330;2023-05-01T03:20:34;0.93;;;0.93;;
57985;SDS011;43788;42.670;23.330;2023-05-01T03:23:00;1.00;;;0.82;;
57985;SDS011;43788;42.670;23.330;2023-05-01T03:25:25;1.13;;;1.02;;
57985;SDS011;43788;42.670;23.330;2023-05-01T03:27:51;1.10;;;1.00;;
57985;SDS011;43788;42.670;23.330;2023-05-01T03:30:16;0.63;;;0.63;;
57985;SDS011;43788;42.670;23.330;2023-05-01T03:32:42;1.75;;;1.20;;
57985;SDS011;43788;42.670;23.330;2023-05-01T03:35:09;1.50;;;1.00;;
57985;SDS011;43788;42.670;23.330;2023-05-01T03:37:34;0.80;;;0.60;;
57985;SDS011;43788;42.670;23.330;2023-05-01T03:40:00;0.73;;;0.73;;
57985;SDS011;43788;42.670;23.330;2023-05-01T03:42:25;0.98;;;0.90;;
57985;SDS011;43788;42.670;23.330;2023-05-01T03:44:51;0.68;;;0.68;;
57985;SDS011;43788;42.670;23.330;2023-05-01T03:47:16;0.52;;;0.52;;
57985;SDS011;43788;42.670;23.330;2023-05-01T03:49:43;0.80;;;0.80;;
57985;SDS011;43788;42.670;23.330;2023-05-01T03:52:09;0.50;;;0.50;;
57985;SDS011;43788;42.670;23.330;2023-05-01T03:54:35;0.60;;;0.60;;
57985;SDS011;43788;42.670;23.330;2023-05-01T03:57:02;0.68;;;0.68;;
57985;SDS011;43788;42.670;23.330;2023-05-01T03:59:27;0.60;;;0.50;;
57985;SDS011;43788;42.670;23.330;2023-05-01T04:01:53;1.40;;;1.00;;
57985;SDS011;43788;42.670;23.330;2023-05-01T04:04:18;0.65;;;0.65;;
57985;SDS011;43788;42.670;23.330;2023-05-01T04:06:44;0.63;;;0.63;;
57985;SDS011;43788;42.670;23.330;2023-05-01T04:09:09;0.93;;;0.82;;
57985;SDS011;43788;42.670;23.330;2023-05-01T04:11:35;0.70;;;0.70;;
57985;SDS011;43788;42.670;23.330;2023-05-01T04:14:00;0.70;;;0.70;;
57985;SDS011;43788;42.670;23.330;2023-05-01T04:16:26;0.63;;;0.63;;
57985;SDS011;43788;42.670;23.330;2023-05-01T04:18:51;0.55;;;0.55;;
57985;SDS011;43788;42.670;23.330;2023-05-01T04:21:17;0.65;;;0.65;;
57985;SDS011;43788;42.670;23.330;2023-05-01T04:23:43;0.85;;;0.85;;
57985;SDS011;43788;42.670;23.330;2023-05-01T04:26:08;1.00;;;1.00;;
57985;SDS011;43788;42.670;23.330;2023-05-01T04:28:34;0.70;;;0.70;;
57985;SDS011;43788;42.670;23.330;2023-05-01T04:30:59;0.95;;;0.88;;
57985;SDS011;43788;42.670;23.330;2023-05-01T04:33:25;1.60;;;0.80;;
57985;SDS011;43788;42.670;23.330;2023-05-01T04:35:52;1.02;;;0.82;;
57985;SDS011;43788;42.670;23.330;2023-05-01T04:38:18;0.82;;;0.82;;
57985;SDS011;43788;42.670;23.330;2023-05-01T04:40:44;0.90;;;0.90;;
57985;SDS011;43788;42.670;23.330;2023-05-01T04:43:10;0.65;;;0.65;;
57985;SDS011;43788;42.670;23.330;2023-05-01T04:45:36;0.73;;;0.73;;
57985;SDS011;43788;42.670;23.330;2023-05-01T04:48:02;1.27;;;1.05;;
57985;SDS011;43788;42.670;23.330;2023-05-01T04:50:28;1.10;;;1.00;;
57985;SDS011;43788;42.670;23.330;2023-05-01T04:52:53;0.60;;;0.60;;
57985;SDS011;43788;42.670;23.330;2023-05-01T04:55:19;0.70;;;0.70;;
57985;SDS011;43788;42.670;23.330;2023-05-01T04:57:44;0.68;;;0.68;;
57985;SDS011;43788;42.670;23.330;2023-05-01T05:00:10;0.70;;;0.70;;
57985;SDS011;43788;42.670;23.330;2023-05-01T05:02:36;0.73;;;0.73;;
57985;SDS011;43788;42.670;23.330;2023-05-01T05:05:01;0.80;;;0.80;;
57985;SDS011;43788;42.670;23.330;2023-05-01T05:07:27;1.15;;;0.98;;
57985;SDS011;43788;42.670;23.330;2023-05-01T05:09:52;0.77;;;0.77;;
57985;SDS011;43788;42.670;23.330;2023-05-01T05:12:18;1.90;;;1.00;;
57985;SDS011;43788;42.670;23.330;2023-05-01T05:14:43;0.70;;;0.70;;
57985;SDS011;43788;42.670;23.330;2023-05-01T05:17:09;0.70;;;0.70;;
57985;SDS011;43788;42.670;23.330;2023-05-01T05:19:34;0.82;;;0.60;;
57985;SDS011;43788;42.670;23.330;2023-05-01T05:22:03;0.60;;;0.60;;
57985;SDS011;43788;42.670;23.330;2023-05-01T05:24:30;0.60;;;0.60;;
57985;SDS011;43788;42.670;23.330;2023-05-01T05:27:05;0.60;;;0.60;;
57985;SDS011;43788;42.670;23.330;2023-05-01T05:29:31;0.90;;;0.90;;
57985;SDS011;43788;42.670;23.330;2023-05-01T05:31:57;0.60;;;0.60;;
57985;SDS011;43788;42.670;23.330;2023-05-01T05:34:23;1.08;;;0.98;;
57985;SDS011;43788;42.670;23.330;2023-05-01T05:36:49;0.80;;;0.80;;
57985;SDS011;43788;42.670;23.330;2023-05-01T05:39:16;0.95;;;0.85;;
57985;SDS011;43788;42.670;23.330;2023-05-01T05:41:41;1.08;;;0.70;;
57985;SDS011;43788;42.670;23.330;2023-05-01T05:44:08;0.70;;;0.70;;
57985;SDS011;43788;42.670;23.330;2023-05-01T05:46:33;0.70;;;0.70;;
57985;SDS011;43788;42.670;23.330;2023-05-01T05:48:59;0.68;;;0.63;;
57985;SDS011;43788;42.670;23.330;2023-05-01T05:51:24;0.70;;;0.70;;
57985;SDS011;43788;42.670;23.330;2023-05-01T05:53:50;0.80;;;0.70;;
57985;SDS011;43788;42.670;23.330;2023-05-01T05:56:16;0.90;;;0.90;;
57985;SDS011;43788;42.670;23.330;2023-05-01T05:58:41;1.38;;;0.90;;
57985;SDS011;43788;42.670;23.330;2023-05-01T06:01:07;1.33;;;0.80;;
57985;SDS011;43788;42.670;23.330;2023-05-01T06:03:33;1.08;;;0.98;;
57985;SDS011;43788;42.670;23.330;2023-05-01T06:06:00;1.05;;;0.77;;
57985;SDS011;43788;42.670;23.330;2023-05-01T06:08:25;0.65;;;0.65;;
57985;SDS011;43788;42.670;23.330;2023-05-01T06:10:51;0.88;;;0.88;;
57985;SDS011;43788;42.670;23.330;2023-05-01T06:13:17;0.80;;;0.80;;
57985;SDS011;43788;42.670;23.330;2023-05-01T06:15:42;0.93;;;0.90;;
57985;SDS011;43788;42.670;23.330;2023-05-01T06:18:09;0.70;;;0.70;;
57985;SDS011;43788;42.670;23.330;2023-05-01T06:20:35;0.73;;;0.60;;
57985;SDS011;43788;42.670;23.330;2023-05-01T06:23:01;0.80;;;0.80;;
57985;SDS011;43788;42.670;23.330;2023-05-01T06:25:26;1.10;;;0.88;;
57985;SDS011;43788;42.670;23.330;2023-05-01T06:27:52;1.35;;;0.80;;
57985;SDS011;43788;42.670;23.330;2023-05-01T06:30:17;0.82;;;0.82;;
57985;SDS011;43788;42.670;23.330;2023-05-01T06:32:46;0.80;;;0.80;;
57985;SDS011;43788;42.670;23.330;2023-05-01T06:35:12;0.88;;;0.70;;
57985;SDS011;43788;42.670;23.330;2023-05-01T06:37:38;0.82;;;0.82;;
57985;SDS011;43788;42.670;23.330;2023-05-01T06:40:04;0.60;;;0.60;;
57985;SDS011;43788;42.670;23.330;2023-05-01T06:42:31;0.60;;;0.60;;
57985;SDS011;43788;42.670;23.330;2023-05-01T06:44:58;0.73;;;0.73;;
57985;SDS011;43788;42.670;23.330;2023-05-01T06:47:23;0.80;;;0.80;;
57985;SDS011;43788;42.670;23.330;2023-05-01T06:49:49;0.85;;;0.80;;
57985;SDS011;43788;42.670;23.330;2023-05-01T06:52:14;0.80;;;0.60;;
57985;SDS011;43788;42.670;23.330;2023-05-01T06:54:40;0.90;;;0.90;;
57985;SDS011;43788;42.670;23.330;2023-05-01T06:57:05;0.70;;;0.63;;
57985;SDS011;43788;42.670;23.330;2023-05-01T06:59:31;0.80;;;0.80;;
57985;SDS011;43788;42.670;23.330;2023-05-01T07:01:56;0.60;;;0.60;;
57985;SDS011;43788;42.670;23.330;2023-05-01T07:04:22;1.20;;;0.90;;
57985;SDS011;43788;42.670;23.330;2023-05-01T07:06:49;2.03;;;1.00;;
57985;SDS011;43788;42.670;23.330;2023-05-01T07:09:14;0.73;;;0.70;;
57985;SDS011;43788;42.670;23.330;2023-05-01T07:11:40;0.75;;;0.75;;
57985;SDS011;43788;42.670;23.330;2023-05-01T07:14:06;0.88;;;0.88;;
57985;SDS011;43788;42.670;23.330;2023-05-01T07:16:32;0.77;;;0.77;;
57985;SDS011;43788;42.670;23.330;2023-05-01T07:18:58;0.63;;;0.60;;
57985;SDS011;43788;42.670;23.330;2023-05-01T07:21:23;1.20;;;0.68;;
57985;SDS011;43788;42.670;23.330;2023-05-01T07:23:49;0.70;;;0.70;;
57985;SDS011;43788;42.670;23.330;2023-05-01T07:26:15;1.25;;;0.50;;
57985;SDS011;43788;42.670;23.330;2023-05-01T07:28:40;0.55;;;0.55;;
57985;SDS011;43788;42.670;23.330;2023-05-01T07:31:08;0.65;;;0.65;;
57985;SDS011;43788;42.670;23.330;2023-05-01T07:33:33;1.27;;;0.65;;
57985;SDS011;43788;42.670;23.330;2023-05-01T07:35:59;0.57;;;0.57;;
57985;SDS011;43788;42.670;23.330;2023-05-01T07:38:25;0.85;;;0.70;;
57985;SDS011;43788;42.670;23.330;2023-05-01T07:40:51;0.73;;;0.73;;
57985;SDS011;43788;42.670;23.330;2023-05-01T07:43:22;0.65;;;0.65;;
57985;SDS011;43788;42.670;23.330;2023-05-01T07:45:54;0.70;;;0.70;;
57985;SDS011;43788;42.670;23.330;2023-05-01T07:48:24;0.60;;;0.60;;
57985;SDS011;43788;42.670;23.330;2023-05-01T07:50:51;0.73;;;0.73;;
57985;SDS011;43788;42.670;23.330;2023-05-01T07:53:17;2.05;;;0.80;;
57985;SDS011;43788;42.670;23.330;2023-05-01T07:55:42;0.63;;;0.60;;
57985;SDS011;43788;42.670;23.330;2023-05-01T07:58:08;0.60;;;0.60;;
57985;SDS011;43788;42.670;23.330;2023-05-01T08:00:34;0.68;;;0.68;;
57985;SDS011;43788;42.670;23.330;2023-05-01T08:03:02;0.60;;;0.60;;
57985;SDS011;43788;42.670;23.330;2023-05-01T08:05:28;0.60;;;0.60;;
57985;SDS011;43788;42.670;23.330;2023-05-01T08:07:58;0.65;;;0.60;;
57985;SDS011;43788;42.670;23.330;2023-05-01T08:10:23;1.20;;;0.82;;
57985;SDS011;43788;42.670;23.330;2023-05-01T08:12:48;0.73;;;0.73;;
57985;SDS011;43788;42.670;23.330;2023-05-01T08:15:14;2.47;;;0.73;;
57985;SDS011;43788;42.670;23.330;2023-05-01T08:17:41;0.70;;;0.70;;
57985;SDS011;43788;42.670;23.330;2023-05-01T08:20:08;0.63;;;0.57;;
57985;SDS011;43788;42.670;23.330;2023-05-01T08:22:35;1.80;;;0.90;;
57985;SDS011;43788;42.670;23.330;2023-05-01T08:25:00;1.10;;;0.80;;
57985;SDS011;43788;42.670;23.330;2023-05-01T08:27:26;0.32;;;0.32;;
57985;SDS011;43788;42.670;23.330;2023-05-01T08:29:52;0.77;;;0.60;;
57985;SDS011;43788;42.670;23.330;2023-05-01T08:32:17;0.50;;;0.50;;
57985;SDS011;43788;42.670;23.330;2023-05-01T08:34:43;0.30;;;0.30;;
57985;SDS011;43788;42.670;23.330;2023-05-01T08:37:08;0.95;;;0.60;;
57985;SDS011;43788;42.670;23.330;2023-05-01T08:39:35;0.60;;;0.60;;
57985;SDS011;43788;42.670;23.330;2023-05-01T08:42:02;0.30;;;0.30;;
57985;SDS011;43788;42.670;23.330;2023-05-01T08:44:27;0.28;;;0.22;;
57985;SDS011;43788;42.670;23.330;2023-05-01T08:47:17;0.60;;;0.45;;
57985;SDS011;43788;42.670;23.330;2023-05-01T08:49:42;0.45;;;0.45;;
57985;SDS011;43788;42.670;23.330;2023-05-01T08:52:12;0.40;;;0.40;;
57985;SDS011;43788;42.670;23.330;2023-05-01T08:54:41;0.30;;;0.30;;
57985;SDS011;43788;42.670;23.330;2023-05-01T08:57:08;0.50;;;0.40;;
57985;SDS011;43788;42.670;23.330;2023-05-01T08:59:36;0.32;;;0.32;;
57985;SDS011;43788;42.670;23.330;2023-05-01T09:02:03;0.40;;;0.40;;
57985;SDS011;43788;42.670;23.330;2023-05-01T09:04:32;0.13;;;0.13;;
57985;SDS011;43788;42.670;23.330;2023-05-01T09:07:00;0.60;;;0.60;;
57985;SDS011;43788;42.670;23.330;2023-05-01T09:09:29;0.50;;;0.50;;
57985;SDS011;43788;42.670;23.330;2023-05-01T09:11:59;0.50;;;0.50;;
57985;SDS011;43788;42.670;23.330;2023-05-01T09:14:29;0.30;;;0.30;;
57985;SDS011;43788;42.670;23.330;2023-05-01T09:16:57;0.30;;;0.30;;
57985;SDS011;43788;42.670;23.330;2023-05-01T09:19:23;0.35;;;0.32;;
57985;SDS011;43788;42.670;23.330;2023-05-01T09:21:51;0.30;;;0.30;;
57985;SDS011;43788;42.670;23.330;2023-05-01T09:24:17;0.25;;;0.25;;
57985;SDS011;43788;42.670;23.330;2023-05-01T09:26:43;0.30;;;0.30;;
57985;SDS011;43788;42.670;23.330;2023-05-01T09:29:08;0.50;;;0.50;;
57985;SDS011;43788;42.670;23.330;2023-05-01T09:31:35;0.90;;;0.40;;
57985;SDS011;43788;42.670;23.330;2023-05-01T09:34:04;0.40;;;0.40;;
57985;SDS011;43788;42.670;23.330;2023-05-01T09:36:31;0.55;;;0.30;;
57985;SDS011;43788;42.670;23.330;2023-05-01T09:38:58;0.30;;;0.30;;
57985;SDS011;43788;42.670;23.330;2023-05-01T09:41:25;1.45;;;0.30;;
57985;SDS011;43788;42.670;23.330;2023-05-01T09:43:55;0.30;;;0.30;;
57985;SDS011;43788;42.670;23.330;2023-05-01T09:46:22;0.25;;;0.25;;
57985;SDS011;43788;42.670;23.330;2023-05-01T09:48:52;0.38;;;0.38;;
57985;SDS011;43788;42.670;23.330;2023-05-01T09:51:20;0.52;;;0.50;;
57985;SDS011;43788;42.670;23.330;2023-05-01T09:53:46;0.20;;;0.20;;
57985;SDS011;43788;42.670;23.330;2023-05-01T09:56:12;0.30;;;0.30;;
57985;SDS011;43788;42.670;23.330;2023-05-01T09:58:39;0.43;;;0.43;;
57985;SDS011;43788;42.670;23.330;2023-05-01T10:01:04;0.30;;;0.30;;
57985;SDS011;43788;42.670;23.330;2023-05-01T10:03:30;0.22;;;0.22;;
57985;SDS011;43788;42.670;23.330;2023-05-01T10:05:57;0.20;;;0.20;;
57985;SDS011;43788;42.670;23.330;2023-05-01T10:08:25;0.32;;;0.32;;
57985;SDS011;43788;42.670;23.330;2023-05-01T10:10:58;0.30;;;0.30;;
57985;SDS011;43788;42.670;23.330;2023-05-01T10:13:26;0.20;;;0.20;;
57985;SDS011;43788;42.670;23.330;2023-05-01T10:15:52;0.90;;;0.38;;
57985;SDS011;43788;42.670;23.330;2023-05-01T10:18:17;0.28;;;0.28;;
57985;SDS011;43788;42.670;23.330;2023-05-01T10:20:43;0.20;;;0.20;;
57985;SDS011;43788;42.670;23.330;2023-05-01T10:23:09;0.20;;;0.20;;
57985;SDS011;43788;42.670;23.330;2023-05-01T10:25:36;0.40;;;0.40;;
57985;SDS011;43788;42.670;23.330;2023-05-01T10:28:03;0.40;;;0.40;;
57985;SDS011;43788;42.670;23.330;2023-05-01T10:30:33;0.28;;;0.28;;
57985;SDS011;43788;42.670;23.330;2023-05-01T10:33:01;0.28;;;0.28;;
57985;SDS011;43788;42.670;23.330;2023-05-01T10:35:28;0.30;;;0.30;;
57985;SDS011;43788;42.670;23.330;2023-05-01T10:45:52;0.30;;;0.30;;
57985;SDS011;43788;42.670;23.330;2023-05-01T10:51:06;0.25;;;0.25;;
57985;SDS011;43788;42.670;23.330;2023-05-01T10:53:43;0.20;;;0.20;;
57985;SDS011;43788;42.670;23.330;2023-05-01T10:58:57;0.22;;;0.20;;
57985;SDS011;43788;42.670;23.330;2023-05-01T11:01:27;1.10;;;0.20;;
57985;SDS011;43788;42.670;23.330;2023-05-01T11:09:40;0.15;;;0.15;;
57985;SDS011;43788;42.670;23.330;2023-05-01T11:12:10;0.20;;;0.20;;
57985;SDS011;43788;42.670;23.330;2023-05-01T11:20:08;0.28;;;0.28;;
57985;SDS011;43788;42.670;23.330;2023-05-01T11:22:35;0.20;;;0.20;;
57985;SDS011;43788;42.670;23.330;2023-05-01T11:25:01;0.20;;;0.20;;
57985;SDS011;43788;42.670;23.330;2023-05-01T11:27:29;0.10;;;0.10;;
57985;SDS011;43788;42.670;23.330;2023-05-01T11:29:55;0.65;;;0.28;;
57985;SDS011;43788;42.670;23.330;2023-05-01T11:32:23;0.20;;;0.20;;
57985;SDS011;43788;42.670;23.330;2023-05-01T11:34:51;0.20;;;0.20;;
57985;SDS011;43788;42.670;23.330;2023-05-01T11:37:16;0.25;;;0.20;;
57985;SDS011;43788;42.670;23.330;2023-05-01T11:39:47;0.20;;;0.20;;
57985;SDS011;43788;42.670;23.330;2023-05-01T11:42:13;0.38;;;0.30;;
57985;SDS011;43788;42.670;23.330;2023-05-01T11:44:38;0.20;;;0.20;;
57985;SDS011;43788;42.670;23.330;2023-05-01T11:47:04;0.35;;;0.30;;
57985;SDS011;43788;42.670;23.330;2023-05-01T11:49:31;0.35;;;0.20;;
57985;SDS011;43788;42.670;23.330;2023-05-01T11:51:57;0.20;;;0.20;;
57985;SDS011;43788;42.670;23.330;2023-05-01T11:54:22;0.20;;;0.20;;
57985;SDS011;43788;42.670;23.330;2023-05-01T11:56:50;2.25;;;0.50;;
57985;SDS011;43788;42.670;23.330;2023-05-01T11:59:22;0.30;;;0.30;;
57985;SDS011;43788;42.670;23.330;2023-05-01T12:01:48;0.30;;;0.30;;
57985;SDS011;43788;42.670;23.330;2023-05-01T12:04:21;0.45;;;0.45;;
57985;SDS011;43788;42.670;23.330;2023-05-01T12:06:50;0.47;;;0.20;;
57985;SDS011;43788;42.670;23.330;2023-05-01T12:09:17;0.15;;;0.15;;
57985;SDS011;43788;42.670;23.330;2023-05-01T12:11:45;0.22;;;0.22;;
57985;SDS011;43788;42.670;23.330;2023-05-01T12:14:13;0.20;;;0.15;;
57985;SDS011;43788;42.670;23.330;2023-05-01T12:16:39;0.57;;;0.30;;
57985;SDS011;43788;42.670;23.330;2023-05-01T12:19:05;0.10;;;0.10;;
57985;SDS011;43788;42.670;23.330;2023-05-01T12:21:31;0.40;;;0.40;;
57985;SDS011;43788;42.670;23.330;2023-05-01T12:24:06;0.10;;;0.10;;
57985;SDS011;43788;42.670;23.330;2023-05-01T12:26:35;0.20;;;0.20;;
57985;SDS011;43788;42.670;23.330;2023-05-01T12:29:04;0.22;;;0.20;;
57985;SDS011;43788;42.670;23.330;2023-05-01T12:31:31;0.20;;;0.20;;
57985;SDS011;43788;42.670;23.330;2023-05-01T12:33:58;0.20;;;0.20;;
57985;SDS011;43788;42.670;23.330;2023-05-01T12:36:25;0.10;;;0.10;;
57985;SDS011;43788;42.670;23.330;2023-05-01T12:41:43;0.25;;;0.25;;
57985;SDS011;43788;42.670;23.330;2023-05-01T12:44:24;0.88;;;0.32;;
57985;SDS011;43788;42.670;23.330;2023-05-01T12:47:06;1.45;;;0.20;;
57985;SDS011;43788;42.670;23.330;2023-05-01T12:49:34;0.10;;;0.10;;
57985;SDS011;43788;42.670;23.330;2023-05-01T12:54:38;0.10;;;0.10;;
57985;SDS011;43788;42.670;23.330;2023-05-01T12:57:12;0.10;;;0.10;;
57985;SDS011;43788;42.670;23.330;2023-05-01T12:59:39;0.10;;;0.10;;
57985;SDS011;43788;42.670;23.330;2023-05-01T13:02:06;0.13;;;0.13;;
57985;SDS011;43788;42.670;23.330;2023-05-01T13:04:39;0.30;;;0.30;;
57985;SDS011;43788;42.670;23.330;2023-05-01T13:07:10;0.43;;;0.20;;
57985;SDS011;43788;42.670;23.330;2023-05-01T13:09:36;0.20;;;0.20;;
57985;SDS011;43788;42.670;23.330;2023-05-01T13:12:02;0.20;;;0.20;;
57985;SDS011;43788;42.670;23.330;2023-05-01T13:14:38;0.22;;;0.22;;
57985;SDS011;43788;42.670;23.330;2023-05-01T13:17:07;0.17;;;0.17;;
57985;SDS011;43788;42.670;23.330;2023-05-01T13:19:33;0.68;;;0.13;;
57985;SDS011;43788;42.670;23.330;2023-05-01T13:21:59;0.13;;;0.13;;
57985;SDS011;43788;42.670;23.330;2023-05-01T13:24:41;0.13;;;0.13;;
57985;SDS011;43788;42.670;23.330;2023-05-01T13:27:08;0.35;;;0.20;;
57985;SDS011;43788;42.670;23.330;2023-05-01T13:29:35;0.20;;;0.20;;
57985;SDS011;43788;42.670;23.330;2023-05-01T13:32:02;0.60;;;0.43;;
57985;SDS011;43788;42.670;23.330;2023-05-01T13:34:32;0.38;;;0.22;;
57985;SDS011;43788;42.670;23.330;2023-05-01T13:36:59;0.65;;;0.30;;
57985;SDS011;43788;42.670;23.330;2023-05-01T13:39:26;0.25;;;0.15;;
57985;SDS011;43788;42.670;23.330;2023-05-01T13:41:52;0.20;;;0.20;;
57985;SDS011;43788;42.670;23.330;2023-05-01T13:44:18;2.38;;;0.30;;
57985;SDS011;43788;42.670;23.330;2023-05-01T13:46:45;0.20;;;0.20;;
57985;SDS011;43788;42.670;23.330;2023-05-01T13:49:10;0.30;;;0.30;;
57985;SDS011;43788;42.670;23.330;2023-05-01T13:51:39;0.45;;;0.40;;
57985;SDS011;43788;42.670;23.330;2023-05-01T13:54:07;0.85;;;0.28;;
57985;SDS011;43788;42.670;23.330;2023-05-01T13:56:34;0.30;;;0.20;;
57985;SDS011;43788;42.670;23.330;2023-05-01T13:59:02;0.20;;;0.20;;
57985;SDS011;43788;42.670;23.330;2023-05-01T14:01:28;0.13;;;0.13;;
57985;SDS011;43788;42.670;23.330;2023-05-01T14:03:54;0.17;;;0.17;;
57985;SDS011;43788;42.670;23.330;2023-05-01T14:06:24;0.10;;;0.10;;
57985;SDS011;43788;42.670;23.330;2023-05-01T14:08:50;0.15;;;0.15;;
57985;SDS011;43788;42.670;23.330;2023-05-01T14:11:16;0.10;;;0.10;;
57985;SDS011;43788;42.670;23.330;2023-05-01T14:13:45;0.20;;;0.20;;
57985;SDS011;43788;42.670;23.330;2023-05-01T14:16:24;0.10;;;0.10;;
57985;SDS011;43788;42.670;23.330;2023-05-01T14:18:52;0.30;;;0.30;;
57985;SDS011;43788;42.670;23.330;2023-05-01T14:21:22;0.28;;;0.28;;
57985;SDS011;43788;42.670;23.330;2023-05-01T14:23:50;0.10;;;0.10;;
57985;SDS011;43788;42.670;23.330;2023-05-01T14:26:25;0.20;;;0.20;;
57985;SDS011;43788;42.670;23.330;2023-05-01T14:28:51;0.15;;;0.15;;
57985;SDS011;43788;42.670;23.330;2023-05-01T14:33:45;0.43;;;0.40;;
57985;SDS011;43788;42.670;23.330;2023-05-01T14:36:12;0.20;;;0.10;;
57985;SDS011;43788;42.670;23.330;2023-05-01T14:38:38;0.10;;;0.10;;
57985;SDS011;43788;42.670;23.330;2023-05-01T14:41:08;0.10;;;0.10;;
57985;SDS011;43788;42.670;23.330;2023-05-01T14:46:02;0.20;;;0.20;;
57985;SDS011;43788;42.670;23.330;2023-05-01T14:48:34;0.20;;;0.20;;
57985;SDS011;43788;42.670;23.330;2023-05-01T14:51:02;0.10;;;0.10;;
57985;SDS011;43788;42.670;23.330;2023-05-01T14:53:31;0.20;;;0.20;;
57985;SDS011;43788;42.670;23.330;2023-05-01T14:55:57;0.15;;;0.10;;
57985;SDS011;43788;42.670;23.330;2023-05-01T14:58:22;0.20;;;0.10;;
57985;SDS011;43788;42.670;23.330;2023-05-01T15:00:48;0.20;;;0.20;;
57985;SDS011;43788;42.670;23.330;2023-05-01T15:03:14;0.65;;;0.30;;
57985;SDS011;43788;42.670;23.330;2023-05-01T15:05:41;0.15;;;0.15;;
57985;SDS011;43788;42.670;23.330;2023-05-01T15:08:08;0.20;;;0.20;;
57985;SDS011;43788;42.670;23.330;2023-05-01T15:10:34;0.10;;;0.10;;
57985;SDS011;43788;42.670;23.330;2023-05-01T15:12:59;0.20;;;0.20;;
57985;SDS011;43788;42.670;23.330;2023-05-01T15:15:25;0.10;;;0.10;;
57985;SDS011;43788;42.670;23.330;2023-05-01T15:17:51;0.20;;;0.20;;
57985;SDS011;43788;42.670;23.330;2023-05-01T15:20:17;0.30;;;0.30;;
57985;SDS011;43788;42.670;23.330;2023-05-01T15:22:42;0.30;;;0.30;;
57985;SDS011;43788;42.670;23.330;2023-05-01T15:25:08;0.20;;;0.20;;